createdAt,value
2017-12-15T00:01:24.910Z,4.97
2017-12-15T00:03:52.423Z,4.93
2017-12-15T00:06:19.935Z,4.43
2017-12-15T00:08:48.198Z,4.63
2017-12-15T00:11:15.716Z,5.50
2017-12-15T00:13:43.212Z,5.70
2017-12-15T00:16:10.735Z,5.90
2017-12-15T00:18:38.231Z,4.90
2017-12-15T00:21:06.668Z,5.83
2017-12-15T00:23:34.164Z,5.80
2017-12-15T00:26:01.665Z,5.60
2017-12-15T00:28:29.179Z,5.70
2017-12-15T00:30:56.733Z,5.50
2017-12-15T00:33:28.513Z,4.87
2017-12-15T00:35:56.776Z,5.10
2017-12-15T00:38:24.291Z,5.53
2017-12-15T00:40:51.868Z,5.33
2017-12-15T00:43:19.407Z,6.07
2017-12-15T00:45:46.905Z,6.00
2017-12-15T00:48:14.415Z,5.93
2017-12-15T00:50:41.944Z,5.40
2017-12-15T00:53:11.098Z,5.80
2017-12-15T00:55:38.623Z,5.93
2017-12-15T00:58:06.123Z,6.00
2017-12-15T01:00:33.757Z,7.20
2017-12-15T01:03:01.348Z,7.80
2017-12-15T01:05:28.885Z,8.00
2017-12-15T01:07:56.382Z,7.30
2017-12-15T01:10:24.653Z,6.57
2017-12-15T01:12:52.175Z,7.10
2017-12-15T01:15:19.671Z,6.37
2017-12-15T01:17:47.183Z,6.40
2017-12-15T01:20:14.674Z,6.47
2017-12-15T01:22:42.195Z,6.10
2017-12-15T01:25:11.303Z,6.67
2017-12-15T01:27:38.823Z,6.20
2017-12-15T01:30:07.079Z,6.40
2017-12-15T01:32:34.597Z,5.43
2017-12-15T01:35:02.096Z,5.80
2017-12-15T01:37:29.611Z,5.70
2017-12-15T01:39:57.108Z,5.30
2017-12-15T01:42:24.602Z,5.00
2017-12-15T01:44:52.887Z,4.97
2017-12-15T01:47:20.375Z,5.60
2017-12-15T01:49:47.883Z,4.70
2017-12-15T01:52:16.143Z,4.80
2017-12-15T01:54:44.435Z,5.37
2017-12-15T01:57:12.695Z,4.43
2017-12-15T01:59:40.216Z,4.67
2017-12-15T02:02:07.719Z,5.40
2017-12-15T02:04:35.999Z,4.63
2017-12-15T02:07:04.263Z,4.90
2017-12-15T02:09:31.765Z,4.53
2017-12-15T02:11:59.287Z,4.43
2017-12-15T02:14:26.812Z,4.43
2017-12-15T02:16:54.377Z,4.40
2017-12-15T02:19:21.921Z,4.30
2017-12-15T02:21:50.248Z,4.43
2017-12-15T02:24:18.549Z,3.43
2017-12-15T02:26:46.114Z,3.90
2017-12-15T02:29:13.649Z,4.60
2017-12-15T02:31:41.948Z,3.40
2017-12-15T02:34:09.512Z,3.10
2017-12-15T02:36:37.045Z,2.33
2017-12-15T02:39:05.386Z,1.70
2017-12-15T02:41:32.916Z,2.00
2017-12-15T02:44:00.477Z,1.83
2017-12-15T02:46:28.017Z,1.80
2017-12-15T02:48:55.581Z,2.10
2017-12-15T02:51:23.114Z,1.93
2017-12-15T02:53:51.413Z,1.67
2017-12-15T02:56:18.974Z,1.03
2017-12-15T02:58:46.508Z,1.40
2017-12-15T03:01:14.836Z,1.40
2017-12-15T03:03:42.377Z,1.60
2017-12-15T03:06:09.944Z,1.50
2017-12-15T03:08:37.481Z,1.63
2017-12-15T03:11:05.054Z,1.50
2017-12-15T03:13:56.324Z,1.10
2017-12-15T03:16:23.839Z,1.50
2017-12-15T03:18:51.337Z,1.30
2017-12-15T03:21:18.823Z,1.17
2017-12-15T03:23:47.098Z,0.90
2017-12-15T03:26:15.355Z,1.00
2017-12-15T03:28:42.870Z,1.00
2017-12-15T03:31:10.394Z,0.80
2017-12-15T03:33:38.666Z,1.00
2017-12-15T03:36:06.918Z,0.93
2017-12-15T03:38:34.435Z,0.90
2017-12-15T03:41:01.932Z,1.17
2017-12-15T03:43:29.451Z,1.20
2017-12-15T03:45:56.944Z,1.50
2017-12-15T03:48:24.430Z,1.67
2017-12-15T03:50:52.707Z,1.60
2017-12-15T03:53:20.966Z,1.63
2017-12-15T03:55:48.479Z,1.60
2017-12-15T03:58:15.967Z,2.00
2017-12-15T04:00:43.484Z,2.07
2017-12-15T04:03:10.982Z,2.00
2017-12-15T04:05:38.495Z,2.27
2017-12-15T04:08:05.983Z,2.00
2017-12-15T04:10:33.500Z,2.20
2017-12-15T04:13:01.767Z,2.40
2017-12-15T04:15:30.031Z,2.60
2017-12-15T04:17:57.547Z,2.07
2017-12-15T04:20:25.043Z,2.30
2017-12-15T04:22:52.563Z,2.20
2017-12-15T04:25:20.059Z,2.27
2017-12-15T04:27:47.570Z,2.10
2017-12-15T04:30:15.062Z,2.13
2017-12-15T04:32:42.587Z,2.30
2017-12-15T04:35:10.078Z,2.10
2017-12-15T04:37:37.600Z,2.20
2017-12-15T04:40:05.092Z,1.73
2017-12-15T04:42:32.579Z,1.70
2017-12-15T04:45:00.859Z,1.60
2017-12-15T04:47:29.121Z,1.20
2017-12-15T04:49:56.696Z,1.10
2017-12-15T04:52:24.156Z,1.77
2017-12-15T04:54:52.434Z,1.50
2017-12-15T04:57:20.694Z,1.50
2017-12-15T04:59:48.211Z,1.60
2017-12-15T05:02:15.702Z,1.60
2017-12-15T05:04:43.194Z,1.50
2017-12-15T05:07:10.707Z,1.67
2017-12-15T05:09:38.194Z,1.50
2017-12-15T05:12:06.474Z,1.43
2017-12-15T05:14:34.731Z,1.30
2017-12-15T05:17:02.247Z,1.10
2017-12-15T05:19:29.743Z,1.10
2017-12-15T05:21:57.264Z,1.10
2017-12-15T05:24:24.758Z,1.20
2017-12-15T05:26:52.276Z,1.30
2017-12-15T05:29:19.766Z,1.10
2017-12-15T05:31:47.260Z,1.10
2017-12-15T05:34:15.535Z,1.20
2017-12-15T05:36:43.792Z,1.13
2017-12-15T05:39:11.307Z,1.30
2017-12-15T05:41:38.798Z,1.10
2017-12-15T05:44:06.314Z,1.20
2017-12-15T05:46:33.811Z,1.10
2017-12-15T05:49:01.329Z,1.10
2017-12-15T05:51:28.822Z,1.40
2017-12-15T05:53:56.315Z,1.03
2017-12-15T05:56:24.599Z,1.20
2017-12-15T05:58:52.859Z,1.37
2017-12-15T06:01:20.402Z,1.20
2017-12-15T06:03:47.895Z,1.10
2017-12-15T06:06:16.170Z,1.17
2017-12-15T06:08:44.426Z,1.10
2017-12-15T06:11:11.943Z,1.67
2017-12-15T06:13:39.435Z,1.37
2017-12-15T06:16:06.927Z,1.77
2017-12-15T06:18:34.444Z,1.60
2017-12-15T06:21:02.698Z,1.93
2017-12-15T06:23:30.217Z,8.70
2017-12-15T06:25:58.475Z,1.73
2017-12-15T06:28:26.758Z,2.20
2017-12-15T06:30:55.011Z,2.10
2017-12-15T06:33:22.503Z,1.83
2017-12-15T06:35:50.778Z,2.20
2017-12-15T06:38:19.032Z,2.50
2017-12-15T06:40:46.544Z,2.50
2017-12-15T06:43:14.042Z,2.57
2017-12-15T06:45:41.559Z,2.93
2017-12-15T06:48:09.047Z,3.00
2017-12-15T06:50:36.567Z,3.13
2017-12-15T06:53:04.058Z,3.60
2017-12-15T06:55:31.555Z,3.07
2017-12-15T06:57:59.848Z,3.10
2017-12-15T07:00:27.341Z,4.60
2017-12-15T07:02:54.859Z,2.90
2017-12-15T07:05:22.346Z,3.70
2017-12-15T07:07:49.859Z,2.63
2017-12-15T07:10:18.116Z,2.57
2017-12-15T07:12:45.627Z,2.50
2017-12-15T07:15:13.123Z,2.30
2017-12-15T07:17:40.640Z,2.23
2017-12-15T07:20:08.135Z,2.20
2017-12-15T07:22:35.631Z,2.10
2017-12-15T07:25:03.919Z,2.80
2017-12-15T07:27:31.415Z,2.50
2017-12-15T07:29:58.935Z,2.50
2017-12-15T07:32:26.431Z,2.23
2017-12-15T07:34:53.943Z,2.30
2017-12-15T07:37:22.203Z,2.00
2017-12-15T07:39:50.492Z,2.00
2017-12-15T07:42:18.746Z,2.60
2017-12-15T07:44:46.266Z,2.30
2017-12-15T07:47:13.759Z,2.20
2017-12-15T07:49:41.247Z,2.30
2017-12-15T07:52:09.523Z,1.70
2017-12-15T07:54:37.015Z,2.30
2017-12-15T07:57:04.527Z,1.60
2017-12-15T07:59:32.016Z,1.83
2017-12-15T08:01:59.531Z,2.13
2017-12-15T08:04:27.027Z,2.10
2017-12-15T08:06:54.539Z,2.10
2017-12-15T08:09:22.030Z,1.70
2017-12-15T08:11:50.290Z,1.93
2017-12-15T08:14:17.808Z,1.90
2017-12-15T08:16:45.298Z,1.70
2017-12-15T08:19:12.819Z,2.00
2017-12-15T08:21:40.316Z,2.20
2017-12-15T08:24:07.831Z,1.90
2017-12-15T08:26:35.323Z,1.60
2017-12-15T08:29:02.838Z,1.80
2017-12-15T08:31:30.326Z,2.00
2017-12-15T08:33:57.845Z,1.87
2017-12-15T08:36:25.339Z,2.23
2017-12-15T08:38:52.834Z,2.27
2017-12-15T08:41:20.351Z,1.83
2017-12-15T08:43:47.839Z,1.80
2017-12-15T08:46:15.354Z,2.00
2017-12-15T08:48:42.847Z,2.47
2017-12-15T08:51:10.363Z,2.30
2017-12-15T08:53:37.859Z,1.90
2017-12-15T08:56:06.148Z,1.73
2017-12-15T08:58:33.638Z,1.70
2017-12-15T09:01:01.422Z,1.80
2017-12-15T09:03:28.919Z,1.90
2017-12-15T09:05:56.410Z,2.00
2017-12-15T09:08:24.692Z,1.40
2017-12-15T09:10:52.951Z,1.60
2017-12-15T09:13:20.469Z,1.80
2017-12-15T09:15:47.955Z,1.40
2017-12-15T09:18:15.471Z,1.43
2017-12-15T09:20:42.969Z,1.73
2017-12-15T09:23:10.481Z,1.37
2017-12-15T09:25:37.974Z,1.60
2017-12-15T09:28:05.486Z,1.90
2017-12-15T09:30:32.971Z,1.80
2017-12-15T09:33:00.463Z,2.43
2017-12-15T09:35:27.978Z,1.70
2017-12-15T09:37:55.471Z,1.80
2017-12-15T09:40:22.995Z,1.33
2017-12-15T09:42:50.486Z,1.70
2017-12-15T09:45:18.003Z,1.83
2017-12-15T09:47:45.499Z,2.13
2017-12-15T09:50:13.019Z,2.03
2017-12-15T09:52:40.515Z,1.67
2017-12-15T09:55:08.003Z,2.10
2017-12-15T09:57:36.279Z,1.80
2017-12-15T10:00:04.539Z,1.37
2017-12-15T10:02:33.560Z,1.57
2017-12-15T10:05:01.819Z,1.30
2017-12-15T10:07:30.103Z,1.40
2017-12-15T10:09:58.362Z,1.47
2017-12-15T10:12:25.879Z,1.60
2017-12-15T10:14:53.371Z,1.43
2017-12-15T10:17:20.863Z,1.70
2017-12-15T10:19:49.147Z,1.70
2017-12-15T10:22:16.634Z,1.77
2017-12-15T10:24:44.143Z,1.50
2017-12-15T10:27:12.409Z,1.47
2017-12-15T10:29:39.927Z,1.63
2017-12-15T10:32:07.422Z,1.60
2017-12-15T10:34:34.930Z,1.80
2017-12-15T10:37:02.422Z,1.60
2017-12-15T10:39:29.940Z,1.60
2017-12-15T10:41:57.436Z,1.50
2017-12-15T10:44:24.934Z,1.33
2017-12-15T10:46:53.211Z,2.70
2017-12-15T10:49:21.463Z,1.17
2017-12-15T10:51:48.979Z,1.50
2017-12-15T10:54:16.470Z,1.10
2017-12-15T10:56:43.978Z,1.50
2017-12-15T10:59:11.470Z,1.27
2017-12-15T11:01:38.991Z,1.37
2017-12-15T11:04:06.491Z,1.10
2017-12-15T11:06:33.989Z,1.00
2017-12-15T11:09:02.311Z,1.20
2017-12-15T11:11:29.803Z,1.37
2017-12-15T11:13:57.318Z,1.37
2017-12-15T11:16:24.811Z,1.43
2017-12-15T11:18:52.323Z,1.50
2017-12-15T11:21:19.818Z,1.47
2017-12-15T11:23:47.328Z,1.20
2017-12-15T11:26:15.578Z,1.50
2017-12-15T11:28:43.073Z,1.40
2017-12-15T11:31:10.590Z,1.40
2017-12-15T11:33:38.083Z,1.57
2017-12-15T11:36:05.594Z,1.40
2017-12-15T11:38:33.087Z,1.80
2017-12-15T11:41:01.367Z,1.60
2017-12-15T11:43:29.637Z,1.60
2017-12-15T11:45:57.918Z,1.60
2017-12-15T11:48:26.171Z,1.90
2017-12-15T11:50:53.691Z,1.80
2017-12-15T11:53:21.183Z,2.37
2017-12-15T11:55:48.675Z,1.97
2017-12-15T11:58:16.965Z,1.50
2017-12-15T12:00:44.460Z,1.90
2017-12-15T12:03:11.979Z,2.00
2017-12-15T12:05:39.467Z,2.30
2017-12-15T12:08:06.983Z,1.50
2017-12-15T12:10:34.486Z,1.50
2017-12-15T12:13:01.978Z,1.40
2017-12-15T12:15:29.491Z,1.37
2017-12-15T12:17:56.988Z,1.50
2017-12-15T12:20:24.507Z,2.17
2017-12-15T12:22:52.000Z,1.77
2017-12-15T12:25:20.283Z,1.43
2017-12-15T12:27:47.775Z,1.70
2017-12-15T12:30:15.410Z,1.37
2017-12-15T12:32:42.898Z,3.10
2017-12-15T12:35:10.386Z,1.93
2017-12-15T12:37:37.907Z,10.17
2017-12-15T12:40:06.158Z,4.40
2017-12-15T12:42:33.670Z,1.40
2017-12-15T12:45:01.163Z,2.20
2017-12-15T12:47:28.679Z,1.50
2017-12-15T12:49:56.171Z,1.40
2017-12-15T12:52:23.691Z,1.20
2017-12-15T12:54:51.178Z,1.33
2017-12-15T12:57:18.667Z,1.70
2017-12-15T12:59:46.197Z,1.23
2017-12-15T13:02:13.694Z,1.77
2017-12-15T13:04:41.974Z,1.70
2017-12-15T13:07:10.228Z,1.20
2017-12-15T13:09:37.743Z,1.27
2017-12-15T13:12:05.239Z,1.23
2017-12-15T13:14:32.788Z,1.43
2017-12-15T13:17:00.272Z,1.20
2017-12-15T13:19:27.769Z,1.57
2017-12-15T13:21:55.287Z,1.40
2017-12-15T13:24:22.787Z,1.30
2017-12-15T13:26:50.310Z,1.53
2017-12-15T13:29:18.568Z,3.10
2017-12-15T13:31:46.084Z,1.50
2017-12-15T13:34:13.579Z,4.67
2017-12-15T13:36:41.074Z,2.97
2017-12-15T13:39:09.359Z,2.50
2017-12-15T13:41:36.851Z,1.77
2017-12-15T13:44:04.365Z,1.70
2017-12-15T13:46:32.627Z,1.40
2017-12-15T13:49:00.915Z,2.00
2017-12-15T13:51:29.179Z,1.67
2017-12-15T13:53:57.463Z,2.20
2017-12-15T13:56:25.719Z,1.70
2017-12-15T13:58:53.214Z,2.20
2017-12-15T14:01:20.728Z,1.80
2017-12-15T14:03:48.222Z,2.30
2017-12-15T14:06:16.507Z,1.57
2017-12-15T14:08:44.001Z,1.70
2017-12-15T14:11:11.510Z,2.00
2017-12-15T14:13:39.771Z,1.77
2017-12-15T14:16:08.055Z,2.60
2017-12-15T14:18:36.319Z,1.93
2017-12-15T14:21:03.808Z,2.00
2017-12-15T14:23:31.323Z,1.53
2017-12-15T14:25:58.810Z,2.40
2017-12-15T14:28:27.127Z,1.87
2017-12-15T14:30:54.599Z,1.20
2017-12-15T14:33:22.111Z,1.20
2017-12-15T14:35:50.367Z,1.07
2017-12-15T14:38:17.878Z,1.20
2017-12-15T14:40:45.371Z,1.27
2017-12-15T14:43:12.859Z,1.83
2017-12-15T14:45:41.135Z,1.10
2017-12-15T14:48:08.635Z,6.97
2017-12-15T14:50:36.151Z,1.80
2017-12-15T14:53:04.402Z,1.30
2017-12-15T14:55:31.920Z,2.17
2017-12-15T14:57:59.413Z,2.00
2017-12-15T15:00:26.927Z,1.60
2017-12-15T15:02:54.423Z,2.60
2017-12-15T15:05:21.911Z,2.10
2017-12-15T15:07:50.188Z,1.70
2017-12-15T15:10:18.448Z,2.20
2017-12-15T15:12:45.972Z,2.57
2017-12-15T15:15:13.467Z,2.13
2017-12-15T15:17:40.993Z,3.10
2017-12-15T15:20:08.487Z,2.40
2017-12-15T15:22:36.007Z,1.80
2017-12-15T15:25:03.494Z,2.40
2017-12-15T15:27:30.986Z,1.43
2017-12-15T15:29:58.495Z,1.50
2017-12-15T15:32:25.988Z,1.90
2017-12-15T15:34:54.275Z,2.47
2017-12-15T15:37:22.532Z,2.70
2017-12-15T15:39:50.047Z,1.30
2017-12-15T15:42:17.538Z,1.10
2017-12-15T15:44:45.047Z,2.13
2017-12-15T15:47:12.543Z,3.50
2017-12-15T15:49:40.063Z,1.40
2017-12-15T15:52:07.556Z,1.40
2017-12-15T15:54:35.051Z,2.17
2017-12-15T15:57:03.331Z,1.90
2017-12-15T15:59:31.596Z,2.23
2017-12-15T16:01:59.879Z,1.80
2017-12-15T16:04:28.147Z,2.57
2017-12-15T16:06:56.435Z,2.63
2017-12-15T16:09:24.694Z,2.13
2017-12-15T16:11:52.215Z,1.87
2017-12-15T16:14:19.710Z,2.33
2017-12-15T16:16:47.228Z,2.33
2017-12-15T16:19:14.718Z,2.30
2017-12-15T16:21:42.210Z,2.50
2017-12-15T16:24:09.728Z,4.10
2017-12-15T16:26:37.214Z,3.13
2017-12-15T16:29:05.503Z,4.03
2017-12-15T16:31:32.999Z,3.50
2017-12-15T16:34:00.515Z,3.50
2017-12-15T16:36:28.779Z,4.40
2017-12-15T16:38:56.299Z,3.10
2017-12-15T16:41:23.815Z,2.40
2017-12-15T16:43:51.311Z,3.50
2017-12-15T16:46:18.834Z,3.90
2017-12-15T16:48:46.331Z,2.93
2017-12-15T16:51:13.843Z,3.83
2017-12-15T16:53:42.102Z,4.90
2017-12-15T16:56:10.383Z,6.03
2017-12-15T16:58:38.642Z,3.50
2017-12-15T17:01:06.135Z,3.60
2017-12-15T17:03:33.651Z,4.30
2017-12-15T17:06:01.147Z,7.20
2017-12-15T17:08:29.432Z,5.43
2017-12-15T17:10:56.922Z,3.13
2017-12-15T17:13:24.438Z,2.80
2017-12-15T17:15:52.707Z,9.17
2017-12-15T17:18:20.992Z,5.60
2017-12-15T17:20:49.255Z,7.43
2017-12-15T17:23:17.539Z,4.43
2017-12-15T17:25:45.790Z,4.20
2017-12-15T17:28:13.283Z,4.50
2017-12-15T17:30:40.803Z,4.13
2017-12-15T17:33:08.299Z,3.33
2017-12-15T17:35:35.818Z,3.10
2017-12-15T17:38:03.310Z,3.70
2017-12-15T17:40:31.589Z,4.00
2017-12-15T17:42:59.847Z,3.47
2017-12-15T17:45:28.129Z,4.23
2017-12-15T17:47:56.386Z,7.00
2017-12-15T17:50:23.902Z,6.53
2017-12-15T17:52:51.390Z,5.13
2017-12-15T17:55:18.879Z,4.87
2017-12-15T17:57:47.165Z,3.90
2017-12-15T18:00:15.471Z,5.17
2017-12-15T18:02:42.995Z,36.17
2017-12-15T18:05:11.256Z,4.10
2017-12-15T18:07:38.771Z,4.70
2017-12-15T18:10:06.270Z,4.30
2017-12-15T18:12:33.787Z,6.00
2017-12-15T18:15:01.285Z,5.37
2017-12-15T18:17:28.779Z,4.20
2017-12-15T18:19:56.299Z,5.53
2017-12-15T18:22:23.815Z,5.00
2017-12-15T18:24:51.335Z,5.23
2017-12-15T18:27:19.600Z,4.70
2017-12-15T18:29:47.110Z,4.20
2017-12-15T18:32:14.602Z,5.20
2017-12-15T18:34:42.135Z,10.27
2017-12-15T18:37:09.628Z,7.70
2017-12-15T18:39:37.123Z,9.23
2017-12-15T18:42:04.642Z,9.30
2017-12-15T18:44:32.901Z,7.20
2017-12-15T18:47:00.415Z,7.30
2017-12-15T18:49:27.906Z,6.70
2017-12-15T18:51:55.419Z,5.10
2017-12-15T18:54:23.690Z,50.80
2017-12-15T18:56:51.975Z,7.23
2017-12-15T18:59:20.234Z,5.20
2017-12-15T19:01:48.500Z,4.50
2017-12-15T19:04:16.019Z,4.50
2017-12-15T19:06:43.510Z,5.10
2017-12-15T19:09:11.024Z,4.67
2017-12-15T19:11:38.518Z,4.60
2017-12-15T19:14:06.037Z,4.70
2017-12-15T19:16:33.531Z,5.63
2017-12-15T19:19:01.042Z,5.30
2017-12-15T19:21:28.535Z,5.83
2017-12-15T19:23:56.026Z,6.07
2017-12-15T19:26:23.534Z,6.37
2017-12-15T19:28:51.040Z,13.43
2017-12-15T19:31:18.561Z,7.63
2017-12-15T19:33:46.054Z,5.83
2017-12-15T19:36:13.575Z,5.83
2017-12-15T19:38:41.071Z,5.13
2017-12-15T19:41:08.588Z,5.73
2017-12-15T19:43:36.079Z,5.87
2017-12-15T19:46:03.591Z,6.03
2017-12-15T19:48:31.083Z,5.90
2017-12-15T19:50:58.570Z,6.30
2017-12-15T19:53:26.086Z,11.40
2017-12-15T19:55:53.583Z,12.67
2017-12-15T19:58:21.103Z,8.67
2017-12-15T20:00:48.709Z,7.60
2017-12-15T20:03:16.994Z,8.60
2017-12-15T20:05:45.254Z,9.47
2017-12-15T20:08:12.772Z,8.30
2017-12-15T20:10:40.262Z,8.57
2017-12-15T20:13:07.778Z,9.60
2017-12-15T20:15:35.270Z,9.23
2017-12-15T20:18:02.791Z,8.80
2017-12-15T20:20:30.286Z,9.00
2017-12-15T20:22:57.783Z,9.33
2017-12-15T20:25:26.072Z,7.97
2017-12-15T20:27:53.575Z,9.47
2017-12-15T20:30:21.087Z,8.37
2017-12-15T20:32:48.574Z,9.47
2017-12-15T20:35:16.091Z,9.53
2017-12-15T20:37:44.355Z,10.20
2017-12-15T20:40:11.880Z,26.83
2017-12-15T20:42:39.375Z,9.93
2017-12-15T20:45:07.667Z,18.73
2017-12-15T20:47:35.167Z,11.80
2017-12-15T20:50:02.706Z,9.83
2017-12-15T20:52:30.210Z,10.70
2017-12-15T20:54:57.713Z,11.90
2017-12-15T20:57:25.234Z,15.63
2017-12-15T20:59:52.726Z,12.93
2017-12-15T21:02:20.243Z,11.73
2017-12-15T21:04:47.738Z,11.73
2017-12-15T21:07:15.263Z,12.10
2017-12-15T21:09:42.763Z,11.80
2017-12-15T21:12:10.289Z,10.60
2017-12-15T21:14:37.792Z,11.20
2017-12-15T21:17:05.291Z,11.20
2017-12-15T21:19:32.830Z,11.50
2017-12-15T21:22:00.331Z,11.80
2017-12-15T21:24:28.615Z,12.03
2017-12-15T21:26:56.879Z,11.90
2017-12-15T21:29:25.163Z,11.40
2017-12-15T21:31:53.422Z,11.40
2017-12-15T21:34:20.947Z,10.10
2017-12-15T21:36:48.450Z,11.20
2017-12-15T21:39:16.715Z,10.30
2017-12-15T21:41:44.239Z,10.80
2017-12-15T21:44:11.735Z,11.30
2017-12-15T21:46:39.262Z,11.47
2017-12-15T21:49:06.767Z,11.10
2017-12-15T21:51:35.054Z,11.67
2017-12-15T21:54:02.551Z,11.97
2017-12-15T21:56:30.071Z,11.80
2017-12-15T21:58:57.570Z,10.90
2017-12-15T22:01:25.068Z,10.50
2017-12-15T22:03:53.354Z,10.27
2017-12-15T22:06:21.623Z,10.57
2017-12-15T22:08:49.906Z,10.60
2017-12-15T22:11:18.167Z,10.37
2017-12-15T22:13:45.693Z,11.77
2017-12-15T22:16:13.207Z,11.93
2017-12-15T22:18:41.496Z,11.70
2017-12-15T22:21:08.995Z,11.40
2017-12-15T22:23:36.491Z,11.43
2017-12-15T22:26:04.776Z,10.30
2017-12-15T22:28:32.274Z,10.27
2017-12-15T22:30:59.796Z,11.00
2017-12-15T22:33:27.294Z,12.23
2017-12-15T22:35:54.814Z,13.13
2017-12-15T22:38:22.328Z,12.70
2017-12-15T22:40:49.857Z,11.40
2017-12-15T22:43:17.355Z,12.87
2017-12-15T22:45:44.851Z,11.60
2017-12-15T22:48:12.372Z,11.97
2017-12-15T22:50:39.871Z,12.30
2017-12-15T22:53:07.391Z,10.90
2017-12-15T22:55:34.892Z,12.33
2017-12-15T22:58:02.429Z,11.00
2017-12-15T23:00:30.699Z,11.87
2017-12-15T23:02:58.987Z,10.90
2017-12-15T23:05:26.482Z,11.70
2017-12-15T23:07:53.979Z,11.33
2017-12-15T23:10:21.499Z,11.20
2017-12-15T23:12:48.999Z,11.80
2017-12-15T23:15:16.519Z,11.47
2017-12-15T23:17:44.028Z,11.73
2017-12-15T23:20:12.311Z,11.50
2017-12-15T23:22:40.579Z,11.27
2017-12-15T23:25:08.867Z,11.57
2017-12-15T23:27:36.371Z,11.23
2017-12-15T23:30:03.871Z,12.10
2017-12-15T23:32:32.163Z,12.10
2017-12-15T23:34:59.663Z,12.23
2017-12-15T23:37:27.192Z,11.70
2017-12-15T23:39:54.695Z,11.87
2017-12-15T23:42:22.219Z,12.17
2017-12-15T23:44:49.720Z,12.20
2017-12-15T23:47:18.746Z,11.50
2017-12-15T23:49:47.011Z,12.13
2017-12-15T23:52:15.302Z,11.53
2017-12-15T23:54:54.791Z,12.37
2017-12-15T23:57:22.312Z,12.20
2017-12-15T23:59:49.810Z,11.63
